sensor_id;sensor_type;location;lat;lon;timestamp;P1;durP1;ratioP1;P2;durP2;ratioP2
72559;SDS011;62987;52.382;9.752;2022-10-16T00:01:06;1.58;;;0.40;;
72559;SDS011;62987;52.382;9.752;2022-10-16T00:03:37;1.98;;;0.65;;
72559;SDS011;62987;52.382;9.752;2022-10-16T00:06:07;2.78;;;0.95;;
72559;SDS011;62987;52.382;9.752;2022-10-16T00:08:36;1.67;;;0.77;;
72559;SDS011;62987;52.382;9.752;2022-10-16T00:11:05;1.25;;;0.55;;
72559;SDS011;62987;52.382;9.752;2022-10-16T00:13:37;1.67;;;0.60;;
72559;SDS011;62987;52.382;9.752;2022-10-16T00:16:06;1.35;;;0.50;;
72559;SDS011;62987;52.382;9.752;2022-10-16T00:18:35;1.92;;;0.63;;
72559;SDS011;62987;52.382;9.752;2022-10-16T00:21:04;2.15;;;0.77;;
72559;SDS011;62987;52.382;9.752;2022-10-16T00:23:55;1.70;;;0.60;;
72559;SDS011;62987;52.382;9.752;2022-10-16T00:26:25;1.90;;;0.90;;
72559;SDS011;62987;52.382;9.752;2022-10-16T00:28:54;3.83;;;0.90;;
72559;SDS011;62987;52.382;9.752;2022-10-16T00:31:22;2.08;;;0.90;;
72559;SDS011;62987;52.382;9.752;2022-10-16T00:33:51;2.58;;;0.73;;
72559;SDS011;62987;52.382;9.752;2022-10-16T00:36:21;2.35;;;0.70;;
72559;SDS011;62987;52.382;9.752;2022-10-16T00:38:51;2.83;;;0.65;;
72559;SDS011;62987;52.382;9.752;2022-10-16T00:41:21;4.78;;;0.65;;
72559;SDS011;62987;52.382;9.752;2022-10-16T00:43:53;1.77;;;0.40;;
72559;SDS011;62987;52.382;9.752;2022-10-16T00:46:23;1.50;;;0.50;;
72559;SDS011;62987;52.382;9.752;2022-10-16T00:48:54;2.83;;;0.90;;
72559;SDS011;62987;52.382;9.752;2022-10-16T00:51:30;2.42;;;0.50;;
72559;SDS011;62987;52.382;9.752;2022-10-16T00:54:01;1.92;;;0.70;;
72559;SDS011;62987;52.382;9.752;2022-10-16T00:56:31;1.13;;;0.63;;
72559;SDS011;62987;52.382;9.752;2022-10-16T00:58:59;2.35;;;0.70;;
72559;SDS011;62987;52.382;9.752;2022-10-16T01:01:30;1.50;;;0.57;;
72559;SDS011;62987;52.382;9.752;2022-10-16T01:03:58;4.85;;;1.05;;
72559;SDS011;62987;52.382;9.752;2022-10-16T01:06:28;1.42;;;0.52;;
72559;SDS011;62987;52.382;9.752;2022-10-16T01:09:07;3.45;;;0.82;;
72559;SDS011;62987;52.382;9.752;2022-10-16T01:11:44;2.25;;;0.60;;
72559;SDS011;62987;52.382;9.752;2022-10-16T01:14:24;1.98;;;0.90;;
72559;SDS011;62987;52.382;9.752;2022-10-16T01:17:02;3.47;;;1.02;;
72559;SDS011;62987;52.382;9.752;2022-10-16T01:19:42;2.65;;;1.00;;
72559;SDS011;62987;52.382;9.752;2022-10-16T01:22:25;1.67;;;0.70;;
72559;SDS011;62987;52.382;9.752;2022-10-16T01:24:57;2.58;;;0.90;;
72559;SDS011;62987;52.382;9.752;2022-10-16T01:27:33;2.20;;;0.70;;
72559;SDS011;62987;52.382;9.752;2022-10-16T01:30:04;3.20;;;0.98;;
72559;SDS011;62987;52.382;9.752;2022-10-16T01:32:40;3.40;;;1.15;;
72559;SDS011;62987;52.382;9.752;2022-10-16T01:35:14;2.42;;;0.93;;
72559;SDS011;62987;52.382;9.752;2022-10-16T01:37:48;2.83;;;0.93;;
72559;SDS011;62987;52.382;9.752;2022-10-16T01:42:55;2.67;;;1.08;;
72559;SDS011;62987;52.382;9.752;2022-10-16T01:45:27;3.72;;;1.23;;
72559;SDS011;62987;52.382;9.752;2022-10-16T01:47:58;3.72;;;1.30;;
72559;SDS011;62987;52.382;9.752;2022-10-16T01:50:31;2.60;;;0.85;;
72559;SDS011;62987;52.382;9.752;2022-10-16T01:53:03;4.32;;;1.10;;
72559;SDS011;62987;52.382;9.752;2022-10-16T01:55:35;4.40;;;1.25;;
72559;SDS011;62987;52.382;9.752;2022-10-16T01:58:12;4.95;;;1.52;;
72559;SDS011;62987;52.382;9.752;2022-10-16T02:00:41;3.47;;;1.00;;
72559;SDS011;62987;52.382;9.752;2022-10-16T02:03:14;3.70;;;1.35;;
72559;SDS011;62987;52.382;9.752;2022-10-16T02:05:48;4.50;;;0.90;;
72559;SDS011;62987;52.382;9.752;2022-10-16T02:08:20;5.50;;;1.25;;
72559;SDS011;62987;52.382;9.752;2022-10-16T02:10:50;4.70;;;1.15;;
72559;SDS011;62987;52.382;9.752;2022-10-16T02:13:22;2.85;;;0.93;;
72559;SDS011;62987;52.382;9.752;2022-10-16T02:15:55;4.93;;;1.30;;
72559;SDS011;62987;52.382;9.752;2022-10-16T02:18:23;4.25;;;1.30;;
72559;SDS011;62987;52.382;9.752;2022-10-16T02:20:56;4.97;;;1.40;;
72559;SDS011;62987;52.382;9.752;2022-10-16T02:23:29;3.22;;;0.90;;
72559;SDS011;62987;52.382;9.752;2022-10-16T02:26:07;2.40;;;1.10;;
72559;SDS011;62987;52.382;9.752;2022-10-16T02:28:40;3.55;;;0.93;;
72559;SDS011;62987;52.382;9.752;2022-10-16T02:31:12;2.60;;;1.00;;
72559;SDS011;62987;52.382;9.752;2022-10-16T02:33:43;4.53;;;1.63;;
72559;SDS011;62987;52.382;9.752;2022-10-16T02:36:13;3.40;;;1.30;;
72559;SDS011;62987;52.382;9.752;2022-10-16T02:38:42;4.07;;;1.73;;
72559;SDS011;62987;52.382;9.752;2022-10-16T02:41:10;4.43;;;0.98;;
72559;SDS011;62987;52.382;9.752;2022-10-16T02:43:39;2.55;;;0.88;;
72559;SDS011;62987;52.382;9.752;2022-10-16T02:46:07;3.88;;;0.80;;
72559;SDS011;62987;52.382;9.752;2022-10-16T02:48:35;3.05;;;1.75;;
72559;SDS011;62987;52.382;9.752;2022-10-16T02:51:04;3.30;;;0.90;;
72559;SDS011;62987;52.382;9.752;2022-10-16T02:53:32;3.35;;;1.00;;
72559;SDS011;62987;52.382;9.752;2022-10-16T02:56:00;4.03;;;0.95;;
72559;SDS011;62987;52.382;9.752;2022-10-16T02:58:28;4.75;;;1.20;;
72559;SDS011;62987;52.382;9.752;2022-10-16T03:00:57;3.00;;;1.50;;
72559;SDS011;62987;52.382;9.752;2022-10-16T03:03:25;2.83;;;1.20;;
72559;SDS011;62987;52.382;9.752;2022-10-16T03:05:53;3.92;;;1.20;;
72559;SDS011;62987;52.382;9.752;2022-10-16T03:08:21;3.15;;;1.25;;
72559;SDS011;62987;52.382;9.752;2022-10-16T03:10:51;3.47;;;1.25;;
72559;SDS011;62987;52.382;9.752;2022-10-16T03:13:19;3.22;;;1.40;;
72559;SDS011;62987;52.382;9.752;2022-10-16T03:15:47;4.75;;;1.30;;
72559;SDS011;62987;52.382;9.752;2022-10-16T03:18:17;3.17;;;1.13;;
72559;SDS011;62987;52.382;9.752;2022-10-16T03:20:45;3.88;;;1.25;;
72559;SDS011;62987;52.382;9.752;2022-10-16T03:23:13;2.63;;;1.05;;
72559;SDS011;62987;52.382;9.752;2022-10-16T03:25:41;2.85;;;1.15;;
72559;SDS011;62987;52.382;9.752;2022-10-16T03:28:09;4.07;;;1.15;;
72559;SDS011;62987;52.382;9.752;2022-10-16T03:30:38;4.60;;;1.80;;
72559;SDS011;62987;52.382;9.752;2022-10-16T03:33:07;3.78;;;1.65;;
72559;SDS011;62987;52.382;9.752;2022-10-16T03:35:36;4.55;;;1.20;;
72559;SDS011;62987;52.382;9.752;2022-10-16T03:38:04;3.78;;;1.63;;
72559;SDS011;62987;52.382;9.752;2022-10-16T03:40:32;2.72;;;1.30;;
72559;SDS011;62987;52.382;9.752;2022-10-16T03:43:00;3.10;;;1.13;;
72559;SDS011;62987;52.382;9.752;2022-10-16T03:45:28;4.60;;;1.42;;
72559;SDS011;62987;52.382;9.752;2022-10-16T03:47:56;3.35;;;1.35;;
72559;SDS011;62987;52.382;9.752;2022-10-16T03:50:24;7.55;;;3.05;;
72559;SDS011;62987;52.382;9.752;2022-10-16T03:52:53;7.10;;;1.83;;
72559;SDS011;62987;52.382;9.752;2022-10-16T03:55:21;12.13;;;2.13;;
72559;SDS011;62987;52.382;9.752;2022-10-16T03:57:49;3.55;;;1.35;;
72559;SDS011;62987;52.382;9.752;2022-10-16T04:00:17;4.97;;;1.25;;
72559;SDS011;62987;52.382;9.752;2022-10-16T04:02:45;3.83;;;1.52;;
72559;SDS011;62987;52.382;9.752;2022-10-16T04:05:13;3.38;;;1.70;;
72559;SDS011;62987;52.382;9.752;2022-10-16T04:07:41;3.20;;;1.30;;
72559;SDS011;62987;52.382;9.752;2022-10-16T04:10:11;4.18;;;1.20;;
72559;SDS011;62987;52.382;9.752;2022-10-16T04:12:39;2.90;;;1.15;;
72559;SDS011;62987;52.382;9.752;2022-10-16T04:15:07;6.35;;;1.50;;
72559;SDS011;62987;52.382;9.752;2022-10-16T04:17:36;4.35;;;1.05;;
72559;SDS011;62987;52.382;9.752;2022-10-16T04:20:04;3.55;;;1.38;;
72559;SDS011;62987;52.382;9.752;2022-10-16T04:22:33;6.13;;;1.50;;
72559;SDS011;62987;52.382;9.752;2022-10-16T04:25:01;3.17;;;1.40;;
72559;SDS011;62987;52.382;9.752;2022-10-16T04:27:31;4.10;;;1.30;;
72559;SDS011;62987;52.382;9.752;2022-10-16T04:29:59;6.93;;;1.42;;
72559;SDS011;62987;52.382;9.752;2022-10-16T04:32:27;5.25;;;1.80;;
72559;SDS011;62987;52.382;9.752;2022-10-16T04:34:55;7.88;;;1.70;;
72559;SDS011;62987;52.382;9.752;2022-10-16T04:37:23;4.80;;;1.95;;
72559;SDS011;62987;52.382;9.752;2022-10-16T04:39:53;3.65;;;1.40;;
72559;SDS011;62987;52.382;9.752;2022-10-16T04:42:21;6.03;;;1.70;;
72559;SDS011;62987;52.382;9.752;2022-10-16T04:44:51;5.63;;;2.10;;
72559;SDS011;62987;52.382;9.752;2022-10-16T04:47:19;6.57;;;1.80;;
72559;SDS011;62987;52.382;9.752;2022-10-16T04:49:47;5.85;;;1.88;;
72559;SDS011;62987;52.382;9.752;2022-10-16T04:52:15;6.53;;;1.92;;
72559;SDS011;62987;52.382;9.752;2022-10-16T04:54:45;4.68;;;1.38;;
72559;SDS011;62987;52.382;9.752;2022-10-16T04:57:13;4.38;;;1.60;;
72559;SDS011;62987;52.382;9.752;2022-10-16T04:59:43;3.83;;;1.55;;
72559;SDS011;62987;52.382;9.752;2022-10-16T05:02:13;4.30;;;2.03;;
72559;SDS011;62987;52.382;9.752;2022-10-16T05:04:41;5.40;;;1.73;;
72559;SDS011;62987;52.382;9.752;2022-10-16T05:07:09;5.25;;;1.73;;
72559;SDS011;62987;52.382;9.752;2022-10-16T05:09:37;8.18;;;1.52;;
72559;SDS011;62987;52.382;9.752;2022-10-16T05:12:05;4.75;;;1.80;;
72559;SDS011;62987;52.382;9.752;2022-10-16T05:14:33;12.35;;;4.80;;
72559;SDS011;62987;52.382;9.752;2022-10-16T05:17:01;6.05;;;1.70;;
72559;SDS011;62987;52.382;9.752;2022-10-16T05:19:30;5.28;;;1.98;;
72559;SDS011;62987;52.382;9.752;2022-10-16T05:21:58;7.63;;;1.92;;
72559;SDS011;62987;52.382;9.752;2022-10-16T05:24:26;5.65;;;2.20;;
72559;SDS011;62987;52.382;9.752;2022-10-16T05:26:54;5.95;;;2.33;;
72559;SDS011;62987;52.382;9.752;2022-10-16T05:29:22;4.82;;;1.70;;
72559;SDS011;62987;52.382;9.752;2022-10-16T05:31:51;4.25;;;1.88;;
72559;SDS011;62987;52.382;9.752;2022-10-16T05:34:19;3.42;;;1.60;;
72559;SDS011;62987;52.382;9.752;2022-10-16T05:36:49;4.75;;;1.70;;
72559;SDS011;62987;52.382;9.752;2022-10-16T05:39:17;4.07;;;1.70;;
72559;SDS011;62987;52.382;9.752;2022-10-16T05:41:45;4.40;;;1.90;;
72559;SDS011;62987;52.382;9.752;2022-10-16T05:44:13;8.65;;;2.45;;
72559;SDS011;62987;52.382;9.752;2022-10-16T05:46:41;4.63;;;1.88;;
72559;SDS011;62987;52.382;9.752;2022-10-16T05:49:09;4.10;;;1.70;;
72559;SDS011;62987;52.382;9.752;2022-10-16T05:51:37;5.00;;;1.98;;
72559;SDS011;62987;52.382;9.752;2022-10-16T05:54:06;4.25;;;2.10;;
72559;SDS011;62987;52.382;9.752;2022-10-16T05:56:34;5.97;;;1.70;;
72559;SDS011;62987;52.382;9.752;2022-10-16T05:59:02;4.45;;;1.67;;
72559;SDS011;62987;52.382;9.752;2022-10-16T06:01:30;4.60;;;1.77;;
72559;SDS011;62987;52.382;9.752;2022-10-16T06:03:59;5.05;;;1.92;;
72559;SDS011;62987;52.382;9.752;2022-10-16T06:06:28;5.95;;;1.88;;
72559;SDS011;62987;52.382;9.752;2022-10-16T06:08:57;4.88;;;1.92;;
72559;SDS011;62987;52.382;9.752;2022-10-16T06:11:28;11.90;;;3.42;;
72559;SDS011;62987;52.382;9.752;2022-10-16T06:13:58;4.72;;;1.70;;
72559;SDS011;62987;52.382;9.752;2022-10-16T06:16:29;4.10;;;1.63;;
72559;SDS011;62987;52.382;9.752;2022-10-16T06:18:57;3.65;;;2.10;;
72559;SDS011;62987;52.382;9.752;2022-10-16T06:21:26;6.20;;;2.08;;
72559;SDS011;62987;52.382;9.752;2022-10-16T06:23:55;3.40;;;1.67;;
72559;SDS011;62987;52.382;9.752;2022-10-16T06:26:25;6.72;;;1.60;;
72559;SDS011;62987;52.382;9.752;2022-10-16T06:28:55;2.83;;;1.25;;
72559;SDS011;62987;52.382;9.752;2022-10-16T06:31:24;2.85;;;1.20;;
72559;SDS011;62987;52.382;9.752;2022-10-16T06:33:55;3.13;;;1.20;;
72559;SDS011;62987;52.382;9.752;2022-10-16T06:36:24;3.55;;;1.27;;
72559;SDS011;62987;52.382;9.752;2022-10-16T06:38:53;2.67;;;0.98;;
72559;SDS011;62987;52.382;9.752;2022-10-16T06:41:21;3.42;;;1.70;;
72559;SDS011;62987;52.382;9.752;2022-10-16T06:43:50;4.22;;;1.30;;
72559;SDS011;62987;52.382;9.752;2022-10-16T06:46:20;3.03;;;1.25;;
72559;SDS011;62987;52.382;9.752;2022-10-16T06:48:50;5.55;;;1.60;;
72559;SDS011;62987;52.382;9.752;2022-10-16T06:51:18;4.45;;;1.58;;
72559;SDS011;62987;52.382;9.752;2022-10-16T06:53:48;2.72;;;1.15;;
72559;SDS011;62987;52.382;9.752;2022-10-16T06:56:29;3.80;;;1.35;;
72559;SDS011;62987;52.382;9.752;2022-10-16T06:58:59;4.47;;;1.48;;
72559;SDS011;62987;52.382;9.752;2022-10-16T07:01:29;3.95;;;1.55;;
72559;SDS011;62987;52.382;9.752;2022-10-16T07:03:57;4.95;;;1.85;;
72559;SDS011;62987;52.382;9.752;2022-10-16T07:06:26;3.50;;;1.08;;
72559;SDS011;62987;52.382;9.752;2022-10-16T07:08:54;2.47;;;1.10;;
72559;SDS011;62987;52.382;9.752;2022-10-16T07:11:23;2.85;;;1.20;;
72559;SDS011;62987;52.382;9.752;2022-10-16T07:13:51;4.00;;;1.77;;
72559;SDS011;62987;52.382;9.752;2022-10-16T07:16:22;2.35;;;1.20;;
72559;SDS011;62987;52.382;9.752;2022-10-16T07:18:54;3.55;;;1.75;;
72559;SDS011;62987;52.382;9.752;2022-10-16T07:21:26;2.63;;;1.30;;
72559;SDS011;62987;52.382;9.752;2022-10-16T07:23:56;2.90;;;1.23;;
72559;SDS011;62987;52.382;9.752;2022-10-16T07:26:28;3.13;;;1.05;;
72559;SDS011;62987;52.382;9.752;2022-10-16T07:28:57;3.55;;;1.00;;
72559;SDS011;62987;52.382;9.752;2022-10-16T07:31:26;2.53;;;1.02;;
72559;SDS011;62987;52.382;9.752;2022-10-16T07:33:57;4.45;;;1.00;;
72559;SDS011;62987;52.382;9.752;2022-10-16T07:36:26;2.38;;;1.05;;
72559;SDS011;62987;52.382;9.752;2022-10-16T07:38:54;2.55;;;0.95;;
72559;SDS011;62987;52.382;9.752;2022-10-16T07:41:25;2.17;;;0.95;;
72559;SDS011;62987;52.382;9.752;2022-10-16T07:43:54;3.50;;;1.20;;
72559;SDS011;62987;52.382;9.752;2022-10-16T07:46:23;4.13;;;1.02;;
72559;SDS011;62987;52.382;9.752;2022-10-16T07:48:51;2.15;;;0.90;;
72559;SDS011;62987;52.382;9.752;2022-10-16T07:51:21;2.38;;;1.00;;
72559;SDS011;62987;52.382;9.752;2022-10-16T07:53:51;1.80;;;0.80;;
72559;SDS011;62987;52.382;9.752;2022-10-16T07:56:20;4.05;;;1.38;;
72559;SDS011;62987;52.382;9.752;2022-10-16T07:58:49;7.50;;;2.65;;
72559;SDS011;62987;52.382;9.752;2022-10-16T08:01:18;2.33;;;0.77;;
72559;SDS011;62987;52.382;9.752;2022-10-16T08:03:47;1.73;;;0.70;;
72559;SDS011;62987;52.382;9.752;2022-10-16T08:06:17;1.70;;;0.75;;
72559;SDS011;62987;52.382;9.752;2022-10-16T08:08:53;1.95;;;0.85;;
72559;SDS011;62987;52.382;9.752;2022-10-16T08:11:22;2.78;;;1.00;;
72559;SDS011;62987;52.382;9.752;2022-10-16T08:13:50;2.65;;;1.10;;
72559;SDS011;62987;52.382;9.752;2022-10-16T08:16:18;3.03;;;0.90;;
72559;SDS011;62987;52.382;9.752;2022-10-16T08:18:46;1.98;;;0.93;;
72559;SDS011;62987;52.382;9.752;2022-10-16T08:21:15;3.25;;;0.93;;
72559;SDS011;62987;52.382;9.752;2022-10-16T08:23:47;2.90;;;0.85;;
72559;SDS011;62987;52.382;9.752;2022-10-16T08:26:24;1.95;;;0.70;;
72559;SDS011;62987;52.382;9.752;2022-10-16T08:28:53;1.10;;;0.50;;
72559;SDS011;62987;52.382;9.752;2022-10-16T08:31:22;2.00;;;0.85;;
72559;SDS011;62987;52.382;9.752;2022-10-16T08:33:50;2.08;;;0.82;;
72559;SDS011;62987;52.382;9.752;2022-10-16T08:36:19;1.90;;;0.68;;
72559;SDS011;62987;52.382;9.752;2022-10-16T08:38:47;2.67;;;0.73;;
72559;SDS011;62987;52.382;9.752;2022-10-16T08:41:22;3.42;;;0.90;;
72559;SDS011;62987;52.382;9.752;2022-10-16T08:47:17;1.67;;;0.60;;
72559;SDS011;62987;52.382;9.752;2022-10-16T08:49:53;4.18;;;1.20;;
72559;SDS011;62987;52.382;9.752;2022-10-16T08:52:25;2.80;;;0.77;;
72559;SDS011;62987;52.382;9.752;2022-10-16T08:54:57;2.83;;;0.65;;
72559;SDS011;62987;52.382;9.752;2022-10-16T08:57:27;2.60;;;0.50;;
72559;SDS011;62987;52.382;9.752;2022-10-16T08:59:57;2.03;;;0.75;;
72559;SDS011;62987;52.382;9.752;2022-10-16T09:02:29;2.78;;;0.70;;
72559;SDS011;62987;52.382;9.752;2022-10-16T09:05:09;2.88;;;0.90;;
72559;SDS011;62987;52.382;9.752;2022-10-16T09:07:57;1.92;;;0.80;;
72559;SDS011;62987;52.382;9.752;2022-10-16T09:10:39;2.35;;;0.60;;
72559;SDS011;62987;52.382;9.752;2022-10-16T09:13:21;1.70;;;1.13;;
72559;SDS011;62987;52.382;9.752;2022-10-16T09:15:55;2.55;;;0.80;;
72559;SDS011;62987;52.382;9.752;2022-10-16T09:18:31;2.80;;;0.75;;
72559;SDS011;62987;52.382;9.752;2022-10-16T09:21:08;1.17;;;0.63;;
72559;SDS011;62987;52.382;9.752;2022-10-16T09:23:41;2.30;;;0.82;;
72559;SDS011;62987;52.382;9.752;2022-10-16T09:26:11;2.47;;;0.60;;
72559;SDS011;62987;52.382;9.752;2022-10-16T09:28:43;3.85;;;0.77;;
72559;SDS011;62987;52.382;9.752;2022-10-16T09:31:13;3.13;;;0.93;;
72559;SDS011;62987;52.382;9.752;2022-10-16T09:36:14;3.20;;;0.70;;
72559;SDS011;62987;52.382;9.752;2022-10-16T09:38:42;6.68;;;2.83;;
72559;SDS011;62987;52.382;9.752;2022-10-16T09:41:14;3.00;;;1.05;;
72559;SDS011;62987;52.382;9.752;2022-10-16T09:43:49;2.30;;;0.70;;
72559;SDS011;62987;52.382;9.752;2022-10-16T09:46:22;2.17;;;0.70;;
72559;SDS011;62987;52.382;9.752;2022-10-16T09:48:54;2.25;;;0.80;;
72559;SDS011;62987;52.382;9.752;2022-10-16T09:51:25;2.83;;;0.93;;
72559;SDS011;62987;52.382;9.752;2022-10-16T09:53:55;3.25;;;0.93;;
72559;SDS011;62987;52.382;9.752;2022-10-16T09:56:26;3.58;;;0.85;;
72559;SDS011;62987;52.382;9.752;2022-10-16T09:58:58;1.95;;;0.68;;
72559;SDS011;62987;52.382;9.752;2022-10-16T10:01:29;2.03;;;0.90;;
72559;SDS011;62987;52.382;9.752;2022-10-16T10:04:03;3.90;;;1.50;;
72559;SDS011;62987;52.382;9.752;2022-10-16T10:06:33;3.55;;;1.27;;
72559;SDS011;62987;52.382;9.752;2022-10-16T10:09:05;1.42;;;0.75;;
72559;SDS011;62987;52.382;9.752;2022-10-16T10:11:44;2.28;;;0.95;;
72559;SDS011;62987;52.382;9.752;2022-10-16T10:17:12;4.32;;;0.80;;
72559;SDS011;62987;52.382;9.752;2022-10-16T10:19:45;1.77;;;0.70;;
72559;SDS011;62987;52.382;9.752;2022-10-16T10:22:29;3.10;;;1.20;;
72559;SDS011;62987;52.382;9.752;2022-10-16T10:25:12;2.95;;;0.80;;
72559;SDS011;62987;52.382;9.752;2022-10-16T10:27:50;4.38;;;1.23;;
72559;SDS011;62987;52.382;9.752;2022-10-16T10:30:31;2.35;;;0.82;;
72559;SDS011;62987;52.382;9.752;2022-10-16T10:33:09;3.30;;;0.77;;
72559;SDS011;62987;52.382;9.752;2022-10-16T10:35:45;3.33;;;0.88;;
72559;SDS011;62987;52.382;9.752;2022-10-16T10:38:25;4.25;;;0.80;;
72559;SDS011;62987;52.382;9.752;2022-10-16T10:41:02;2.63;;;0.77;;
72559;SDS011;62987;52.382;9.752;2022-10-16T10:43:43;1.75;;;0.77;;
72559;SDS011;62987;52.382;9.752;2022-10-16T10:46:26;2.97;;;0.80;;
72559;SDS011;62987;52.382;9.752;2022-10-16T10:49:08;5.30;;;1.10;;
72559;SDS011;62987;52.382;9.752;2022-10-16T10:51:49;3.00;;;1.05;;
72559;SDS011;62987;52.382;9.752;2022-10-16T10:54:31;3.67;;;1.40;;
72559;SDS011;62987;52.382;9.752;2022-10-16T10:57:07;3.03;;;0.90;;
72559;SDS011;62987;52.382;9.752;2022-10-16T10:59:49;4.15;;;1.10;;
72559;SDS011;62987;52.382;9.752;2022-10-16T11:02:29;2.45;;;0.55;;
72559;SDS011;62987;52.382;9.752;2022-10-16T11:05:15;2.95;;;0.80;;
72559;SDS011;62987;52.382;9.752;2022-10-16T11:08:01;2.75;;;1.00;;
72559;SDS011;62987;52.382;9.752;2022-10-16T11:10:34;4.47;;;1.10;;
72559;SDS011;62987;52.382;9.752;2022-10-16T11:13:09;1.52;;;0.90;;
72559;SDS011;62987;52.382;9.752;2022-10-16T11:15:45;3.15;;;1.05;;
72559;SDS011;62987;52.382;9.752;2022-10-16T11:18:19;3.92;;;0.93;;
72559;SDS011;62987;52.382;9.752;2022-10-16T11:20:52;5.93;;;2.22;;
72559;SDS011;62987;52.382;9.752;2022-10-16T11:23:23;3.15;;;1.20;;
72559;SDS011;62987;52.382;9.752;2022-10-16T11:25:56;4.03;;;0.90;;
72559;SDS011;62987;52.382;9.752;2022-10-16T11:28:27;1.42;;;0.63;;
72559;SDS011;62987;52.382;9.752;2022-10-16T11:31:02;4.15;;;0.70;;
72559;SDS011;62987;52.382;9.752;2022-10-16T11:33:39;2.58;;;0.90;;
72559;SDS011;62987;52.382;9.752;2022-10-16T11:36:11;2.30;;;0.90;;
72559;SDS011;62987;52.382;9.752;2022-10-16T11:38:44;2.63;;;0.80;;
72559;SDS011;62987;52.382;9.752;2022-10-16T11:41:19;1.65;;;0.50;;
72559;SDS011;62987;52.382;9.752;2022-10-16T11:43:58;5.88;;;1.20;;
72559;SDS011;62987;52.382;9.752;2022-10-16T11:46:37;1.35;;;0.45;;
72559;SDS011;62987;52.382;9.752;2022-10-16T11:49:27;1.95;;;0.77;;
72559;SDS011;62987;52.382;9.752;2022-10-16T11:51:59;1.70;;;0.70;;
72559;SDS011;62987;52.382;9.752;2022-10-16T11:54:35;3.10;;;0.70;;
72559;SDS011;62987;52.382;9.752;2022-10-16T11:57:11;1.90;;;0.60;;
72559;SDS011;62987;52.382;9.752;2022-10-16T11:59:46;2.50;;;0.82;;
72559;SDS011;62987;52.382;9.752;2022-10-16T12:02:40;3.45;;;0.70;;
72559;SDS011;62987;52.382;9.752;2022-10-16T12:05:21;4.35;;;1.02;;
72559;SDS011;62987;52.382;9.752;2022-10-16T12:07:56;2.45;;;0.60;;
72559;SDS011;62987;52.382;9.752;2022-10-16T12:10:31;4.43;;;0.93;;
72559;SDS011;62987;52.382;9.752;2022-10-16T12:16:05;1.58;;;0.50;;
72559;SDS011;62987;52.382;9.752;2022-10-16T12:21:16;1.60;;;0.60;;
72559;SDS011;62987;52.382;9.752;2022-10-16T12:23:49;1.80;;;0.60;;
72559;SDS011;62987;52.382;9.752;2022-10-16T12:26:24;3.47;;;0.63;;
72559;SDS011;62987;52.382;9.752;2022-10-16T12:28:55;2.88;;;0.70;;
72559;SDS011;62987;52.382;9.752;2022-10-16T12:31:37;1.15;;;0.40;;
72559;SDS011;62987;52.382;9.752;2022-10-16T12:34:23;1.23;;;0.77;;
72559;SDS011;62987;52.382;9.752;2022-10-16T12:37:06;1.25;;;0.60;;
72559;SDS011;62987;52.382;9.752;2022-10-16T12:39:37;2.38;;;0.52;;
72559;SDS011;62987;52.382;9.752;2022-10-16T12:42:06;2.33;;;0.57;;
72559;SDS011;62987;52.382;9.752;2022-10-16T12:44:49;1.20;;;0.55;;
72559;SDS011;62987;52.382;9.752;2022-10-16T12:47:19;3.25;;;0.82;;
72559;SDS011;62987;52.382;9.752;2022-10-16T12:49:49;4.00;;;0.90;;
72559;SDS011;62987;52.382;9.752;2022-10-16T12:52:36;2.30;;;0.60;;
72559;SDS011;62987;52.382;9.752;2022-10-16T12:55:05;2.38;;;0.52;;
72559;SDS011;62987;52.382;9.752;2022-10-16T12:57:45;2.85;;;0.70;;
72559;SDS011;62987;52.382;9.752;2022-10-16T13:00:39;2.45;;;0.82;;
72559;SDS011;62987;52.382;9.752;2022-10-16T13:06:29;2.10;;;0.80;;
72559;SDS011;62987;52.382;9.752;2022-10-16T13:09:08;3.20;;;0.63;;
72559;SDS011;62987;52.382;9.752;2022-10-16T13:11:52;2.88;;;0.85;;
72559;SDS011;62987;52.382;9.752;2022-10-16T13:14:33;3.55;;;0.70;;
72559;SDS011;62987;52.382;9.752;2022-10-16T13:17:15;1.98;;;0.82;;
72559;SDS011;62987;52.382;9.752;2022-10-16T13:19:53;4.05;;;0.70;;
72559;SDS011;62987;52.382;9.752;2022-10-16T13:22:30;1.98;;;0.70;;
72559;SDS011;62987;52.382;9.752;2022-10-16T13:25:10;3.08;;;0.73;;
72559;SDS011;62987;52.382;9.752;2022-10-16T13:27:51;2.08;;;1.13;;
72559;SDS011;62987;52.382;9.752;2022-10-16T13:30:24;2.45;;;0.80;;
72559;SDS011;62987;52.382;9.752;2022-10-16T13:32:58;3.75;;;0.60;;
72559;SDS011;62987;52.382;9.752;2022-10-16T13:35:29;1.80;;;0.88;;
72559;SDS011;62987;52.382;9.752;2022-10-16T13:38:03;3.72;;;0.90;;
72559;SDS011;62987;52.382;9.752;2022-10-16T13:40:49;1.63;;;0.70;;
72559;SDS011;62987;52.382;9.752;2022-10-16T13:43:18;4.72;;;0.88;;
72559;SDS011;62987;52.382;9.752;2022-10-16T13:45:53;2.30;;;0.73;;
72559;SDS011;62987;52.382;9.752;2022-10-16T13:48:22;1.63;;;0.52;;
72559;SDS011;62987;52.382;9.752;2022-10-16T13:51:04;1.83;;;0.80;;
72559;SDS011;62987;52.382;9.752;2022-10-16T13:53:34;4.65;;;1.20;;
72559;SDS011;62987;52.382;9.752;2022-10-16T13:56:05;2.33;;;0.80;;
72559;SDS011;62987;52.382;9.752;2022-10-16T13:58:35;2.38;;;0.70;;
72559;SDS011;62987;52.382;9.752;2022-10-16T14:01:05;1.63;;;0.60;;
72559;SDS011;62987;52.382;9.752;2022-10-16T14:03:40;2.13;;;0.80;;
72559;SDS011;62987;52.382;9.752;2022-10-16T14:06:11;3.03;;;0.88;;
72559;SDS011;62987;52.382;9.752;2022-10-16T14:08:45;2.88;;;0.60;;
72559;SDS011;62987;52.382;9.752;2022-10-16T14:11:22;2.45;;;0.60;;
72559;SDS011;62987;52.382;9.752;2022-10-16T14:13:51;2.40;;;0.80;;
72559;SDS011;62987;52.382;9.752;2022-10-16T14:16:20;2.00;;;0.65;;
72559;SDS011;62987;52.382;9.752;2022-10-16T14:18:53;1.30;;;0.63;;
72559;SDS011;62987;52.382;9.752;2022-10-16T14:21:25;2.42;;;0.73;;
72559;SDS011;62987;52.382;9.752;2022-10-16T14:23:54;2.72;;;0.70;;
72559;SDS011;62987;52.382;9.752;2022-10-16T14:26:25;2.65;;;0.68;;
72559;SDS011;62987;52.382;9.752;2022-10-16T14:29:01;1.83;;;0.70;;
72559;SDS011;62987;52.382;9.752;2022-10-16T14:31:37;2.35;;;1.00;;
72559;SDS011;62987;52.382;9.752;2022-10-16T14:36:58;2.80;;;1.00;;
72559;SDS011;62987;52.382;9.752;2022-10-16T14:39:27;5.90;;;1.45;;
72559;SDS011;62987;52.382;9.752;2022-10-16T14:41:57;4.43;;;1.20;;
72559;SDS011;62987;52.382;9.752;2022-10-16T14:44:27;3.22;;;0.90;;
72559;SDS011;62987;52.382;9.752;2022-10-16T14:46:58;3.92;;;1.15;;
72559;SDS011;62987;52.382;9.752;2022-10-16T14:49:35;2.88;;;1.20;;
72559;SDS011;62987;52.382;9.752;2022-10-16T14:52:05;3.20;;;0.93;;
72559;SDS011;62987;52.382;9.752;2022-10-16T14:54:37;3.78;;;0.98;;
72559;SDS011;62987;52.382;9.752;2022-10-16T14:57:12;2.83;;;1.15;;
72559;SDS011;62987;52.382;9.752;2022-10-16T14:59:44;4.07;;;0.80;;
72559;SDS011;62987;52.382;9.752;2022-10-16T15:02:16;4.35;;;1.20;;
72559;SDS011;62987;52.382;9.752;2022-10-16T15:04:50;3.40;;;0.90;;
72559;SDS011;62987;52.382;9.752;2022-10-16T15:07:18;3.47;;;0.93;;
72559;SDS011;62987;52.382;9.752;2022-10-16T15:09:47;2.28;;;0.73;;
72559;SDS011;62987;52.382;9.752;2022-10-16T15:12:17;4.63;;;1.00;;
72559;SDS011;62987;52.382;9.752;2022-10-16T15:14:45;5.43;;;0.95;;
72559;SDS011;62987;52.382;9.752;2022-10-16T15:17:13;3.88;;;1.00;;
72559;SDS011;62987;52.382;9.752;2022-10-16T15:19:46;2.08;;;0.75;;
72559;SDS011;62987;52.382;9.752;2022-10-16T15:22:14;3.45;;;0.90;;
72559;SDS011;62987;52.382;9.752;2022-10-16T15:24:42;2.88;;;0.88;;
72559;SDS011;62987;52.382;9.752;2022-10-16T15:27:10;2.83;;;1.13;;
72559;SDS011;62987;52.382;9.752;2022-10-16T15:29:40;2.85;;;0.80;;
72559;SDS011;62987;52.382;9.752;2022-10-16T15:32:08;2.10;;;0.73;;
72559;SDS011;62987;52.382;9.752;2022-10-16T15:34:37;3.75;;;1.15;;
72559;SDS011;62987;52.382;9.752;2022-10-16T15:37:05;3.58;;;0.85;;
72559;SDS011;62987;52.382;9.752;2022-10-16T15:39:33;2.58;;;1.05;;